createdAt,value
2023-02-13T00:01:19.470Z,2.70
2023-02-13T00:03:52.446Z,2.65
2023-02-13T00:06:28.625Z,2.67
2023-02-13T00:08:55.816Z,2.05
2023-02-13T00:11:26.957Z,2.65
2023-02-13T00:14:02.334Z,2.75
2023-02-13T00:16:33.039Z,2.15
2023-02-13T00:19:04.255Z,2.63
2023-02-13T00:21:32.502Z,2.35
2023-02-13T00:24:07.456Z,2.65
2023-02-13T00:26:34.779Z,2.90
2023-02-13T00:29:07.251Z,2.70
2023-02-13T00:31:40.639Z,2.00
2023-02-13T00:34:11.256Z,2.33
2023-02-13T00:36:44.437Z,2.17
2023-02-13T00:39:15.043Z,2.88
2023-02-13T00:41:48.855Z,2.22
2023-02-13T00:44:21.723Z,2.42
2023-02-13T00:46:49.226Z,2.53
2023-02-13T00:49:21.765Z,2.25
2023-02-13T00:51:51.483Z,1.90
2023-02-13T00:54:22.402Z,1.92
2023-02-13T00:56:53.448Z,2.33
2023-02-13T00:59:26.925Z,1.90
2023-02-13T01:02:36.961Z,1.75
2023-02-13T01:05:13.219Z,1.52
2023-02-13T01:07:40.926Z,2.20
2023-02-13T01:10:12.617Z,1.52
2023-02-13T01:12:49.311Z,1.77
2023-02-13T01:15:19.178Z,1.92
2023-02-13T01:17:49.498Z,1.80
2023-02-13T01:20:28.935Z,1.55
2023-02-13T01:23:06.259Z,1.45
2023-02-13T01:25:39.447Z,1.30
2023-02-13T01:28:09.960Z,1.70
2023-02-13T01:30:37.147Z,1.55
2023-02-13T01:33:07.420Z,1.50
2023-02-13T01:35:42.784Z,1.73
2023-02-13T01:38:12.660Z,1.60
2023-02-13T01:40:48.088Z,2.00
2023-02-13T01:43:15.538Z,1.90
2023-02-13T01:45:43.982Z,1.90
2023-02-13T01:48:16.773Z,1.77
2023-02-13T01:51:01.407Z,1.88
2023-02-13T01:53:42.529Z,1.98
2023-02-13T01:56:22.045Z,1.48
2023-02-13T01:58:53.182Z,1.60
2023-02-13T02:01:29.949Z,1.75
2023-02-13T02:04:04.907Z,1.60
2023-02-13T02:06:35.412Z,1.90
2023-02-13T02:09:11.040Z,2.08
2023-02-13T02:12:04.778Z,1.90
2023-02-13T02:14:41.289Z,1.85
2023-02-13T02:17:08.376Z,1.90
2023-02-13T02:19:53.727Z,2.10
2023-02-13T02:22:24.028Z,1.60
2023-02-13T02:25:09.665Z,1.38
2023-02-13T02:27:52.059Z,1.52
2023-02-13T02:30:25.118Z,1.98
2023-02-13T02:33:01.430Z,1.60
2023-02-13T02:35:43.514Z,1.98
2023-02-13T02:38:17.862Z,1.92
2023-02-13T02:40:59.776Z,1.83
2023-02-13T02:43:31.186Z,1.40
2023-02-13T02:46:16.616Z,1.38
2023-02-13T02:49:08.188Z,1.75
2023-02-13T02:51:56.648Z,2.03
2023-02-13T02:54:51.638Z,2.38
2023-02-13T02:57:25.050Z,1.80
2023-02-13T03:00:11.973Z,1.90
2023-02-13T03:02:57.736Z,1.92
2023-02-13T03:05:54.167Z,1.45
2023-02-13T03:08:41.982Z,1.42
2023-02-13T03:11:30.807Z,1.52
2023-02-13T03:14:04.304Z,1.48
2023-02-13T03:16:50.256Z,2.03
2023-02-13T03:19:41.576Z,1.65
2023-02-13T03:22:31.292Z,0.95
2023-02-13T03:25:09.496Z,1.40
2023-02-13T03:28:17.328Z,1.33
2023-02-13T03:30:56.982Z,1.38
2023-02-13T03:33:42.333Z,1.40
2023-02-13T03:36:36.493Z,1.42
2023-02-13T03:39:08.262Z,1.48
2023-02-13T03:41:52.804Z,1.40
2023-02-13T03:44:29.459Z,1.02
2023-02-13T03:47:02.406Z,1.77
2023-02-13T03:49:53.266Z,1.50
2023-02-13T03:52:41.453Z,1.08
2023-02-13T03:55:36.799Z,1.33
2023-02-13T03:58:28.543Z,1.60
2023-02-13T04:01:02.278Z,1.48
2023-02-13T04:03:43.209Z,1.10
2023-02-13T04:06:20.253Z,1.23
2023-02-13T04:09:06.489Z,1.52
2023-02-13T04:11:39.744Z,1.20
2023-02-13T04:14:21.779Z,1.38
2023-02-13T04:16:58.273Z,1.50
2023-02-13T04:19:34.249Z,1.50
2023-02-13T04:22:07.813Z,1.52
2023-02-13T04:24:40.766Z,1.30
2023-02-13T04:27:16.316Z,1.52
2023-02-13T04:29:52.246Z,1.60
2023-02-13T04:32:22.467Z,1.40
2023-02-13T04:35:02.292Z,1.70
2023-02-13T04:37:32.295Z,1.50
2023-02-13T04:40:03.655Z,1.20
2023-02-13T04:42:44.050Z,1.00
2023-02-13T04:45:14.163Z,1.15
2023-02-13T04:47:46.814Z,0.82
2023-02-13T04:50:19.158Z,1.40
2023-02-13T04:52:56.735Z,1.10
2023-02-13T04:55:34.341Z,0.88
2023-02-13T04:58:06.930Z,0.80
2023-02-13T05:00:38.223Z,0.90
2023-02-13T05:03:09.621Z,0.95
2023-02-13T05:05:42.456Z,1.33
2023-02-13T05:08:15.406Z,1.45
2023-02-13T05:10:45.329Z,1.13
2023-02-13T05:13:12.805Z,1.40
2023-02-13T05:15:46.268Z,1.40
2023-02-13T05:18:22.777Z,1.23
2023-02-13T05:21:12.095Z,1.17
2023-02-13T05:23:42.812Z,1.10
2023-02-13T05:26:15.862Z,1.75
2023-02-13T05:29:00.966Z,1.42
2023-02-13T05:31:33.965Z,1.00
2023-02-13T05:34:07.496Z,1.10
2023-02-13T05:36:41.491Z,0.90
2023-02-13T05:39:12.302Z,0.80
2023-02-13T05:41:45.210Z,1.05
2023-02-13T05:44:17.589Z,0.82
2023-02-13T05:46:55.753Z,1.10
2023-02-13T05:49:28.861Z,1.25
2023-02-13T05:52:04.380Z,0.98
2023-02-13T05:54:46.655Z,0.90
2023-02-13T05:57:20.153Z,1.20
2023-02-13T05:59:52.251Z,1.10
2023-02-13T06:02:25.217Z,1.20
2023-02-13T06:04:55.570Z,0.80
2023-02-13T06:07:28.572Z,1.20
2023-02-13T06:10:01.002Z,1.25
2023-02-13T06:12:30.850Z,1.25
2023-02-13T06:15:03.574Z,1.30
2023-02-13T06:17:36.215Z,1.10
2023-02-13T06:20:09.860Z,1.08
2023-02-13T06:22:42.807Z,0.90
2023-02-13T06:25:15.174Z,1.20
2023-02-13T06:27:45.568Z,1.20
2023-02-13T06:30:18.302Z,1.02
2023-02-13T06:32:49.026Z,1.40
2023-02-13T06:35:22.198Z,1.15
2023-02-13T06:37:54.736Z,0.98
2023-02-13T06:40:28.171Z,1.25
2023-02-13T06:42:58.533Z,1.00
2023-02-13T06:45:26.895Z,1.20
2023-02-13T06:48:00.333Z,1.35
2023-02-13T06:50:33.494Z,1.65
2023-02-13T06:53:06.814Z,1.67
2023-02-13T06:55:45.686Z,1.13
2023-02-13T06:58:21.011Z,1.40
2023-02-13T07:00:54.496Z,1.20
2023-02-13T07:03:24.928Z,1.17
2023-02-13T07:05:54.131Z,1.85
2023-02-13T07:08:24.115Z,0.90
2023-02-13T07:10:57.569Z,1.10
2023-02-13T07:13:33.953Z,1.10
2023-02-13T07:16:09.814Z,1.00
2023-02-13T07:18:46.568Z,1.23
2023-02-13T07:24:43.003Z,0.90
2023-02-13T07:27:13.628Z,1.17
2023-02-13T07:29:49.546Z,1.20
2023-02-13T07:32:21.724Z,0.98
2023-02-13T07:35:01.994Z,0.70
2023-02-13T07:37:32.616Z,0.95
2023-02-13T07:40:08.797Z,0.93
2023-02-13T07:42:36.408Z,1.05
2023-02-13T07:45:08.614Z,1.20
2023-02-13T07:47:38.242Z,1.73
2023-02-13T07:50:16.446Z,1.60
2023-02-13T07:52:53.294Z,1.35
2023-02-13T07:55:25.819Z,1.40
2023-02-13T07:57:59.082Z,1.52
2023-02-13T08:00:29.289Z,1.25
2023-02-13T08:03:08.454Z,1.50
2023-02-13T08:05:43.771Z,1.20
2023-02-13T08:08:20.374Z,1.33
2023-02-13T08:11:09.424Z,1.05
2023-02-13T08:16:32.503Z,1.17
2023-02-13T08:19:05.796Z,1.02
2023-02-13T08:21:38.635Z,0.80
2023-02-13T08:24:11.269Z,1.00
2023-02-13T08:26:41.946Z,1.20
2023-02-13T08:29:15.442Z,1.20
2023-02-13T08:31:43.072Z,1.27
2023-02-13T08:34:16.648Z,1.20
2023-02-13T08:36:51.047Z,1.30
2023-02-13T08:39:22.157Z,1.40
2023-02-13T08:41:56.535Z,1.10
2023-02-13T08:44:26.859Z,1.10
2023-02-13T08:47:02.556Z,1.02
2023-02-13T08:49:33.755Z,1.25
2023-02-13T08:52:10.324Z,1.48
2023-02-13T08:54:41.361Z,1.70
2023-02-13T08:57:10.239Z,1.65
2023-02-13T08:59:42.688Z,1.65
2023-02-13T09:02:11.442Z,1.02
2023-02-13T09:04:40.796Z,1.35
2023-02-13T09:07:07.882Z,1.77
2023-02-13T09:09:40.298Z,1.52
2023-02-13T09:12:09.738Z,1.33
2023-02-13T09:14:36.852Z,1.23
2023-02-13T09:17:06.004Z,1.15
2023-02-13T09:19:40.926Z,1.42
2023-02-13T09:22:10.716Z,1.40
2023-02-13T09:24:40.976Z,1.60
2023-02-13T09:27:12.169Z,0.65
2023-02-13T09:29:42.584Z,1.05
2023-02-13T09:32:12.807Z,1.02
2023-02-13T09:34:43.440Z,1.13
2023-02-13T09:37:20.218Z,1.25
2023-02-13T09:39:52.025Z,1.30
2023-02-13T09:42:22.332Z,0.95
2023-02-13T09:44:49.901Z,1.30
2023-02-13T09:47:35.371Z,1.30
2023-02-13T09:50:11.580Z,1.08
2023-02-13T09:52:42.094Z,1.27
2023-02-13T09:55:37.987Z,0.77
2023-02-13T09:58:08.416Z,0.98
2023-02-13T10:00:47.099Z,1.30
2023-02-13T10:03:40.961Z,1.17
2023-02-13T10:06:31.097Z,0.70
2023-02-13T10:09:16.198Z,0.90
2023-02-13T10:12:05.862Z,1.27
2023-02-13T10:14:39.896Z,1.42
2023-02-13T10:17:22.624Z,1.15
2023-02-13T10:20:15.785Z,1.05
2023-02-13T10:23:05.818Z,1.27
2023-02-13T10:25:46.053Z,0.70
2023-02-13T10:28:35.992Z,0.70
2023-02-13T10:31:17.731Z,0.90
2023-02-13T10:33:52.536Z,0.93
2023-02-13T10:36:22.741Z,0.68
2023-02-13T10:38:58.463Z,1.00
2023-02-13T10:41:43.293Z,1.25
2023-02-13T10:44:22.612Z,1.05
2023-02-13T10:47:17.495Z,1.30
2023-02-13T10:49:47.682Z,1.05
2023-02-13T10:52:42.552Z,1.13
2023-02-13T10:55:26.047Z,1.30
2023-02-13T10:58:14.376Z,1.40
2023-02-13T11:00:48.766Z,1.23
2023-02-13T11:03:26.119Z,1.15
2023-02-13T11:06:03.684Z,0.88
2023-02-13T11:08:34.343Z,1.40
2023-02-13T11:11:05.508Z,1.83
2023-02-13T11:13:41.327Z,1.08
2023-02-13T11:16:14.589Z,1.55
2023-02-13T11:18:45.027Z,2.05
2023-02-13T11:21:22.933Z,1.30
2023-02-13T11:24:02.808Z,1.48
2023-02-13T11:26:31.377Z,0.98
2023-02-13T11:29:04.840Z,1.30
2023-02-13T11:31:33.695Z,1.30
2023-02-13T11:34:24.306Z,1.30
2023-02-13T11:37:01.380Z,1.35
2023-02-13T11:39:31.504Z,0.57
2023-02-13T11:42:03.712Z,1.45
2023-02-13T11:44:35.287Z,0.60
2023-02-13T11:47:05.787Z,1.38
2023-02-13T11:49:40.262Z,1.38
2023-02-13T11:52:28.341Z,1.80
2023-02-13T11:55:01.061Z,1.55
2023-02-13T11:57:36.873Z,1.73
2023-02-13T12:00:41.743Z,1.50
2023-02-13T12:03:28.717Z,0.93
2023-02-13T12:06:07.350Z,0.63
2023-02-13T12:08:40.227Z,2.00
2023-02-13T12:11:22.486Z,1.50
2023-02-13T12:13:55.952Z,2.15
2023-02-13T12:16:47.730Z,1.98
2023-02-13T12:19:20.840Z,1.52
2023-02-13T12:21:53.958Z,1.13
2023-02-13T12:24:41.838Z,1.38
2023-02-13T12:27:21.330Z,1.50
2023-02-13T12:30:09.791Z,1.52
2023-02-13T12:32:56.985Z,1.10
2023-02-13T12:35:44.640Z,1.20
2023-02-13T12:38:21.240Z,2.17
2023-02-13T12:40:55.129Z,1.33
2023-02-13T12:43:28.883Z,1.98
2023-02-13T12:46:14.539Z,2.30
2023-02-13T12:49:05.622Z,1.73
2023-02-13T12:51:49.004Z,0.80
2023-02-13T12:54:28.868Z,1.38
2023-02-13T12:57:17.825Z,1.27
2023-02-13T13:00:24.084Z,1.52
2023-02-13T13:03:03.826Z,1.75
2023-02-13T13:06:03.516Z,1.75
2023-02-13T13:09:32.468Z,2.13
2023-02-13T13:12:15.275Z,1.38
2023-02-13T13:15:11.760Z,1.63
2023-02-13T13:17:57.012Z,1.65
2023-02-13T13:20:42.595Z,2.50
2023-02-13T13:23:13.147Z,2.35
2023-02-13T13:25:54.419Z,1.17
2023-02-13T13:28:33.509Z,0.98
2023-02-13T13:31:07.383Z,2.13
2023-02-13T13:33:43.149Z,1.60
2023-02-13T13:36:18.779Z,1.45
2023-02-13T13:39:01.871Z,1.00
2023-02-13T13:41:37.436Z,1.23
2023-02-13T13:44:07.826Z,0.70
2023-02-13T13:47:13.287Z,0.73
2023-02-13T13:49:57.047Z,1.60
2023-02-13T13:52:31.003Z,1.08
2023-02-13T13:55:05.077Z,1.27
2023-02-13T13:57:47.503Z,1.33
2023-02-13T14:00:20.904Z,1.83
2023-02-13T14:02:59.870Z,2.40
2023-02-13T14:05:36.681Z,2.35
2023-02-13T14:08:27.307Z,2.97
2023-02-13T14:11:01.353Z,2.08
2023-02-13T14:13:46.032Z,2.55
2023-02-13T14:16:36.707Z,2.53
2023-02-13T14:19:10.433Z,2.97
2023-02-13T14:21:42.579Z,2.20
2023-02-13T14:24:12.342Z,1.92
2023-02-13T14:26:44.792Z,2.50
2023-02-13T14:29:12.381Z,2.83
2023-02-13T14:31:50.076Z,2.60
2023-02-13T14:34:31.068Z,2.40
2023-02-13T14:37:10.891Z,2.58
2023-02-13T14:39:46.587Z,2.83
2023-02-13T14:42:35.023Z,2.65
2023-02-13T14:45:08.705Z,1.10
2023-02-13T14:47:43.471Z,2.10
2023-02-13T14:50:32.023Z,1.88
2023-02-13T14:53:11.358Z,1.55
2023-02-13T14:55:52.922Z,1.38
2023-02-13T14:58:37.068Z,1.92
2023-02-13T15:01:14.841Z,2.17
2023-02-13T15:03:53.560Z,1.95
2023-02-13T15:06:31.082Z,2.53
2023-02-13T15:09:08.830Z,2.58
2023-02-13T15:11:48.312Z,3.00
2023-02-13T15:14:19.066Z,3.10
2023-02-13T15:16:59.904Z,3.25
2023-02-13T15:19:33.704Z,2.95
2023-02-13T15:22:06.090Z,2.67
2023-02-13T15:24:37.604Z,2.15
2023-02-13T15:27:23.624Z,1.55
2023-02-13T15:29:55.411Z,1.90
2023-02-13T15:32:36.076Z,1.92
2023-02-13T15:35:16.785Z,2.08
2023-02-13T15:37:44.823Z,1.73
2023-02-13T15:40:26.195Z,1.35
2023-02-13T15:43:02.629Z,2.15
2023-02-13T15:45:43.020Z,1.73
2023-02-13T15:48:24.380Z,1.48
2023-02-13T15:50:54.624Z,2.70
2023-02-13T15:53:30.503Z,2.85
2023-02-13T15:56:08.674Z,2.67
2023-02-13T15:58:38.947Z,1.65
2023-02-13T16:01:14.377Z,1.08
2023-02-13T16:03:53.191Z,2.00
2023-02-13T16:06:26.670Z,2.83
2023-02-13T16:08:58.624Z,2.50
2023-02-13T16:11:35.577Z,2.58
2023-02-13T16:14:14.737Z,2.65
2023-02-13T16:16:46.588Z,3.53
2023-02-13T16:19:29.438Z,2.65
2023-02-13T16:22:05.618Z,2.60
2023-02-13T16:24:35.904Z,3.10
2023-02-13T16:27:07.141Z,2.78
2023-02-13T16:29:35.672Z,2.60
2023-02-13T16:32:08.569Z,2.33
2023-02-13T16:34:35.906Z,2.30
2023-02-13T16:37:09.239Z,2.00
2023-02-13T16:39:39.520Z,1.80
2023-02-13T16:42:14.233Z,2.40
2023-02-13T16:44:44.472Z,2.40
2023-02-13T16:47:27.304Z,2.40
2023-02-13T16:50:02.420Z,2.20
2023-02-13T16:52:38.033Z,2.10
2023-02-13T16:55:21.516Z,2.90
2023-02-13T16:57:50.637Z,2.45
2023-02-13T17:00:35.020Z,2.60
2023-02-13T17:03:09.195Z,2.28
2023-02-13T17:05:45.436Z,2.83
2023-02-13T17:08:22.386Z,2.50
2023-02-13T17:11:08.144Z,2.83
2023-02-13T17:13:42.215Z,2.70
2023-02-13T17:16:13.022Z,2.80
2023-02-13T17:18:46.663Z,2.50
2023-02-13T17:21:20.152Z,2.55
2023-02-13T17:23:53.819Z,2.47
2023-02-13T17:26:25.476Z,2.55
2023-02-13T17:28:57.034Z,2.50
2023-02-13T17:31:27.270Z,2.55
2023-02-13T17:33:54.493Z,2.08
2023-02-13T17:36:29.354Z,2.00
2023-02-13T17:38:57.666Z,2.05
2023-02-13T17:41:28.185Z,2.33
2023-02-13T17:44:02.162Z,2.35
2023-02-13T17:46:37.390Z,2.50
2023-02-13T17:49:10.871Z,2.40
2023-02-13T17:51:45.653Z,2.83
2023-02-13T17:54:18.943Z,3.50
2023-02-13T17:56:52.179Z,3.53
2023-02-13T17:59:25.624Z,3.50
2023-02-13T18:02:03.664Z,3.85
2023-02-13T18:04:37.147Z,3.67
2023-02-13T18:07:08.020Z,3.65
2023-02-13T18:09:38.584Z,4.28
2023-02-13T18:12:12.740Z,3.72
2023-02-13T18:14:50.628Z,4.20
2023-02-13T18:17:36.140Z,3.65
2023-02-13T18:20:08.941Z,4.03
2023-02-13T18:22:39.548Z,3.67
2023-02-13T18:25:12.088Z,3.75
2023-02-13T18:27:45.298Z,4.82
2023-02-13T18:30:23.012Z,4.35
2023-02-13T18:32:57.107Z,3.45
2023-02-13T18:35:27.552Z,3.47
2023-02-13T18:37:57.983Z,3.70
2023-02-13T18:43:26.136Z,3.88
2023-02-13T18:46:02.304Z,3.28
2023-02-13T18:48:34.960Z,2.58
2023-02-13T18:51:05.622Z,3.47
2023-02-13T18:53:37.982Z,3.70
2023-02-13T18:56:11.978Z,3.63
2023-02-13T18:58:44.901Z,3.15
2023-02-13T19:01:19.725Z,2.67
2023-02-13T19:03:55.024Z,3.08
2023-02-13T19:06:26.872Z,3.53
2023-02-13T19:08:56.993Z,3.45
2023-02-13T19:11:30.464Z,3.92
2023-02-13T19:14:02.952Z,3.55
2023-02-13T19:16:31.347Z,3.55
2023-02-13T19:19:00.104Z,3.42
2023-02-13T19:21:40.908Z,3.92
2023-02-13T19:24:17.472Z,3.38
2023-02-13T19:26:47.753Z,3.10
2023-02-13T19:29:23.872Z,2.72
2023-02-13T19:31:58.754Z,2.63
2023-02-13T19:34:28.710Z,1.83
2023-02-13T19:37:01.053Z,1.70
2023-02-13T19:39:37.190Z,2.20
2023-02-13T19:42:10.540Z,1.58
2023-02-13T19:44:43.176Z,1.70
2023-02-13T19:47:16.915Z,2.03
2023-02-13T19:49:50.871Z,1.55
2023-02-13T19:52:19.427Z,1.98
2023-02-13T19:54:54.872Z,1.58
2023-02-13T19:57:27.994Z,1.63
2023-02-13T20:00:02.189Z,1.63
2023-02-13T20:02:38.292Z,2.20
2023-02-13T20:05:14.796Z,1.83
2023-02-13T20:07:47.636Z,1.67
2023-02-13T20:10:24.141Z,1.40
2023-02-13T20:13:00.582Z,1.45
2023-02-13T20:15:33.474Z,1.02
2023-02-13T20:18:08.168Z,1.42
2023-02-13T20:20:42.349Z,1.70
2023-02-13T20:23:12.950Z,1.80
2023-02-13T20:25:45.465Z,2.17
2023-02-13T20:28:18.787Z,2.35
2023-02-13T20:30:51.862Z,2.42
2023-02-13T20:33:22.381Z,2.10
2023-02-13T20:35:54.424Z,1.77
2023-02-13T20:38:26.297Z,1.92
2023-02-13T20:41:00.407Z,1.85
2023-02-13T20:43:33.499Z,1.83
2023-02-13T20:46:06.218Z,2.40
2023-02-13T20:48:35.369Z,1.50
2023-02-13T20:51:06.706Z,1.30
2023-02-13T20:53:38.382Z,1.67
2023-02-13T20:56:28.743Z,1.77
2023-02-13T20:59:00.798Z,2.28
2023-02-13T21:01:35.930Z,1.70
2023-02-13T21:04:13.978Z,2.08
2023-02-13T21:06:46.631Z,2.28
2023-02-13T21:09:22.154Z,2.97
2023-02-13T21:11:55.049Z,2.97
2023-02-13T21:14:27.094Z,2.65
2023-02-13T21:16:59.494Z,2.53
2023-02-13T21:19:34.428Z,2.08
2023-02-13T21:22:21.952Z,3.33
2023-02-13T21:24:54.830Z,3.05
2023-02-13T21:27:28.710Z,2.88
2023-02-13T21:30:05.103Z,3.58
2023-02-13T21:32:32.745Z,3.83
2023-02-13T21:35:08.626Z,3.35
2023-02-13T21:37:41.065Z,3.55
2023-02-13T21:40:17.281Z,2.67
2023-02-13T21:42:49.674Z,2.30
2023-02-13T21:45:19.176Z,2.53
2023-02-13T21:47:49.836Z,2.22
2023-02-13T21:50:22.660Z,2.15
2023-02-13T21:52:58.427Z,2.90
2023-02-13T21:55:33.632Z,2.40
2023-02-13T21:58:00.764Z,2.38
2023-02-13T22:00:29.351Z,2.55
2023-02-13T22:02:59.415Z,2.15
2023-02-13T22:05:32.728Z,1.63
2023-02-13T22:08:14.687Z,2.20
2023-02-13T22:10:45.882Z,2.38
2023-02-13T22:13:22.838Z,2.10
2023-02-13T22:16:03.222Z,2.50
2023-02-13T22:18:49.906Z,2.22
2023-02-13T22:21:27.475Z,2.55
2023-02-13T22:23:57.293Z,2.35
2023-02-13T22:26:45.871Z,2.17
2023-02-13T22:29:19.154Z,2.42
2023-02-13T22:31:50.526Z,2.88
2023-02-13T22:34:27.083Z,2.30
2023-02-13T22:36:59.931Z,2.20
2023-02-13T22:39:30.677Z,2.50
2023-02-13T22:42:03.919Z,2.75
2023-02-13T22:44:34.321Z,2.80
2023-02-13T22:47:07.516Z,2.33
2023-02-13T22:49:40.288Z,2.80
2023-02-13T22:52:17.389Z,2.80
2023-02-13T22:54:52.870Z,2.65
2023-02-13T22:57:24.382Z,3.03
2023-02-13T22:59:54.558Z,3.15
2023-02-13T23:02:23.105Z,3.70
2023-02-13T23:04:59.183Z,3.45
2023-02-13T23:07:30.190Z,4.03
2023-02-13T23:09:57.343Z,3.50
2023-02-13T23:12:45.867Z,3.58
2023-02-13T23:15:21.372Z,3.13
2023-02-13T23:18:06.844Z,4.05
2023-02-13T23:20:45.258Z,3.78
2023-02-13T23:23:18.181Z,3.05
2023-02-13T23:25:51.170Z,3.60
2023-02-13T23:28:28.021Z,3.60
2023-02-13T23:31:03.979Z,3.13
2023-02-13T23:33:39.786Z,3.40
2023-02-13T23:36:10.539Z,3.33
2023-02-13T23:38:45.466Z,3.08
2023-02-13T23:41:18.548Z,3.63
2023-02-13T23:43:48.661Z,3.50
2023-02-13T23:46:21.726Z,3.75
2023-02-13T23:48:55.841Z,3.88
2023-02-13T23:51:29.448Z,3.25
2023-02-13T23:53:59.804Z,3.72
2023-02-13T23:56:31.945Z,3.42
2023-02-13T23:59:08.320Z,3.80
